sensor_id;sensor_type;location;lat;lon;timestamp;P1;durP1;ratioP1;P2;durP2;ratioP2
2105;SDS011;1059;52.548;13.408;2023-02-28T00:01:11;6.70;;;5.40;;
2105;SDS011;1059;52.548;13.408;2023-02-28T00:03:38;6.47;;;4.67;;
2105;SDS011;1059;52.548;13.408;2023-02-28T00:06:08;7.50;;;4.63;;
2105;SDS011;1059;52.548;13.408;2023-02-28T00:08:35;6.37;;;5.00;;
2105;SDS011;1059;52.548;13.408;2023-02-28T00:11:02;7.77;;;5.03;;
2105;SDS011;1059;52.548;13.408;2023-02-28T00:13:30;7.90;;;4.60;;
2105;SDS011;1059;52.548;13.408;2023-02-28T00:16:02;8.50;;;4.97;;
2105;SDS011;1059;52.548;13.408;2023-02-28T00:18:30;7.80;;;5.67;;
2105;SDS011;1059;52.548;13.408;2023-02-28T00:20:57;7.07;;;5.00;;
2105;SDS011;1059;52.548;13.408;2023-02-28T00:23:24;6.97;;;4.67;;
2105;SDS011;1059;52.548;13.408;2023-02-28T00:25:52;6.27;;;4.70;;
2105;SDS011;1059;52.548;13.408;2023-02-28T00:28:19;8.20;;;4.73;;
2105;SDS011;1059;52.548;13.408;2023-02-28T00:30:46;6.20;;;4.27;;
2105;SDS011;1059;52.548;13.408;2023-02-28T00:33:14;7.50;;;4.60;;
2105;SDS011;1059;52.548;13.408;2023-02-28T00:35:42;6.53;;;4.67;;
2105;SDS011;1059;52.548;13.408;2023-02-28T00:38:11;8.37;;;4.70;;
2105;SDS011;1059;52.548;13.408;2023-02-28T00:40:38;5.83;;;4.30;;
2105;SDS011;1059;52.548;13.408;2023-02-28T00:43:04;7.07;;;5.23;;
2105;SDS011;1059;52.548;13.408;2023-02-28T00:45:31;5.13;;;3.63;;
2105;SDS011;1059;52.548;13.408;2023-02-28T00:47:58;6.67;;;4.23;;
2105;SDS011;1059;52.548;13.408;2023-02-28T00:50:27;6.53;;;4.50;;
2105;SDS011;1059;52.548;13.408;2023-02-28T00:52:53;8.70;;;4.93;;
2105;SDS011;1059;52.548;13.408;2023-02-28T00:55:20;7.23;;;4.20;;
2105;SDS011;1059;52.548;13.408;2023-02-28T00:57:47;6.80;;;4.70;;
2105;SDS011;1059;52.548;13.408;2023-02-28T01:00:14;7.77;;;4.40;;
2105;SDS011;1059;52.548;13.408;2023-02-28T01:02:41;5.93;;;4.10;;
2105;SDS011;1059;52.548;13.408;2023-02-28T01:05:08;8.77;;;5.23;;
2105;SDS011;1059;52.548;13.408;2023-02-28T01:07:36;10.97;;;5.87;;
2105;SDS011;1059;52.548;13.408;2023-02-28T01:10:04;6.20;;;4.30;;
2105;SDS011;1059;52.548;13.408;2023-02-28T01:12:31;6.13;;;4.30;;
2105;SDS011;1059;52.548;13.408;2023-02-28T01:14:58;6.57;;;4.67;;
2105;SDS011;1059;52.548;13.408;2023-02-28T01:17:25;6.50;;;4.30;;
2105;SDS011;1059;52.548;13.408;2023-02-28T01:19:52;8.13;;;4.83;;
2105;SDS011;1059;52.548;13.408;2023-02-28T01:22:20;7.70;;;4.90;;
2105;SDS011;1059;52.548;13.408;2023-02-28T01:24:48;11.43;;;6.20;;
2105;SDS011;1059;52.548;13.408;2023-02-28T01:27:15;7.00;;;4.70;;
2105;SDS011;1059;52.548;13.408;2023-02-28T01:29:42;7.13;;;4.47;;
2105;SDS011;1059;52.548;13.408;2023-02-28T01:32:09;9.30;;;5.17;;
2105;SDS011;1059;52.548;13.408;2023-02-28T01:34:35;10.80;;;5.77;;
2105;SDS011;1059;52.548;13.408;2023-02-28T01:37:03;18.20;;;5.40;;
2105;SDS011;1059;52.548;13.408;2023-02-28T01:39:29;5.93;;;4.70;;
2105;SDS011;1059;52.548;13.408;2023-02-28T01:41:58;6.80;;;4.63;;
2105;SDS011;1059;52.548;13.408;2023-02-28T01:47:28;6.20;;;4.93;;
2105;SDS011;1059;52.548;13.408;2023-02-28T01:49:57;10.63;;;6.83;;
2105;SDS011;1059;52.548;13.408;2023-02-28T01:52:26;6.43;;;5.40;;
2105;SDS011;1059;52.548;13.408;2023-02-28T01:54:55;8.80;;;5.17;;
2105;SDS011;1059;52.548;13.408;2023-02-28T01:57:26;8.40;;;5.00;;
2105;SDS011;1059;52.548;13.408;2023-02-28T02:00:03;8.37;;;4.50;;
2105;SDS011;1059;52.548;13.408;2023-02-28T02:02:34;10.27;;;5.23;;
2105;SDS011;1059;52.548;13.408;2023-02-28T02:05:03;9.07;;;5.60;;
2105;SDS011;1059;52.548;13.408;2023-02-28T02:07:32;10.77;;;6.63;;
2105;SDS011;1059;52.548;13.408;2023-02-28T02:10:02;6.97;;;5.00;;
2105;SDS011;1059;52.548;13.408;2023-02-28T02:12:35;6.50;;;4.90;;
2105;SDS011;1059;52.548;13.408;2023-02-28T02:15:12;8.13;;;5.17;;
2105;SDS011;1059;52.548;13.408;2023-02-28T02:17:43;6.30;;;4.70;;
2105;SDS011;1059;52.548;13.408;2023-02-28T02:20:38;11.70;;;5.33;;
2105;SDS011;1059;52.548;13.408;2023-02-28T02:29:38;6.73;;;5.20;;
2105;SDS011;1059;52.548;13.408;2023-02-28T02:32:24;6.23;;;4.90;;
2105;SDS011;1059;52.548;13.408;2023-02-28T02:35:02;7.47;;;5.10;;
2105;SDS011;1059;52.548;13.408;2023-02-28T02:37:39;9.00;;;5.40;;
2105;SDS011;1059;52.548;13.408;2023-02-28T02:40:14;8.30;;;5.13;;
2105;SDS011;1059;52.548;13.408;2023-02-28T02:42:46;10.00;;;4.97;;
2105;SDS011;1059;52.548;13.408;2023-02-28T02:45:17;7.03;;;4.73;;
2105;SDS011;1059;52.548;13.408;2023-02-28T02:47:49;6.83;;;4.73;;
2105;SDS011;1059;52.548;13.408;2023-02-28T02:50:19;6.70;;;5.30;;
2105;SDS011;1059;52.548;13.408;2023-02-28T02:52:53;7.73;;;5.10;;
2105;SDS011;1059;52.548;13.408;2023-02-28T02:55:23;10.90;;;6.13;;
2105;SDS011;1059;52.548;13.408;2023-02-28T02:57:52;9.37;;;5.53;;
2105;SDS011;1059;52.548;13.408;2023-02-28T03:00:23;8.00;;;5.80;;
2105;SDS011;1059;52.548;13.408;2023-02-28T03:02:52;8.40;;;6.07;;
2105;SDS011;1059;52.548;13.408;2023-02-28T03:05:23;8.13;;;5.90;;
2105;SDS011;1059;52.548;13.408;2023-02-28T03:07:52;8.17;;;5.60;;
2105;SDS011;1059;52.548;13.408;2023-02-28T03:10:27;7.83;;;5.30;;
2105;SDS011;1059;52.548;13.408;2023-02-28T03:13:00;6.83;;;5.23;;
2105;SDS011;1059;52.548;13.408;2023-02-28T03:15:57;7.57;;;6.00;;
2105;SDS011;1059;52.548;13.408;2023-02-28T03:18:36;16.57;;;11.03;;
2105;SDS011;1059;52.548;13.408;2023-02-28T03:21:14;10.53;;;7.83;;
2105;SDS011;1059;52.548;13.408;2023-02-28T03:23:52;13.27;;;5.90;;
2105;SDS011;1059;52.548;13.408;2023-02-28T03:26:25;10.13;;;6.03;;
2105;SDS011;1059;52.548;13.408;2023-02-28T03:28:54;9.63;;;6.00;;
2105;SDS011;1059;52.548;13.408;2023-02-28T03:31:29;7.20;;;6.50;;
2105;SDS011;1059;52.548;13.408;2023-02-28T03:34:00;9.13;;;5.70;;
2105;SDS011;1059;52.548;13.408;2023-02-28T03:36:36;8.77;;;5.30;;
2105;SDS011;1059;52.548;13.408;2023-02-28T03:39:09;7.67;;;5.87;;
2105;SDS011;1059;52.548;13.408;2023-02-28T03:41:41;12.43;;;5.90;;
2105;SDS011;1059;52.548;13.408;2023-02-28T03:44:14;7.30;;;5.90;;
2105;SDS011;1059;52.548;13.408;2023-02-28T03:46:46;10.70;;;6.23;;
2105;SDS011;1059;52.548;13.408;2023-02-28T03:49:20;9.47;;;6.87;;
2105;SDS011;1059;52.548;13.408;2023-02-28T03:51:51;7.80;;;5.80;;
2105;SDS011;1059;52.548;13.408;2023-02-28T03:54:21;8.27;;;5.57;;
2105;SDS011;1059;52.548;13.408;2023-02-28T03:56:55;8.47;;;6.50;;
2105;SDS011;1059;52.548;13.408;2023-02-28T03:59:26;9.00;;;6.20;;
2105;SDS011;1059;52.548;13.408;2023-02-28T04:01:57;8.37;;;6.33;;
2105;SDS011;1059;52.548;13.408;2023-02-28T04:04:24;9.60;;;6.87;;
2105;SDS011;1059;52.548;13.408;2023-02-28T04:06:53;9.73;;;6.17;;
2105;SDS011;1059;52.548;13.408;2023-02-28T04:09:27;7.33;;;5.70;;
2105;SDS011;1059;52.548;13.408;2023-02-28T04:11:54;11.57;;;6.33;;
2105;SDS011;1059;52.548;13.408;2023-02-28T04:14:21;10.73;;;6.67;;
2105;SDS011;1059;52.548;13.408;2023-02-28T04:16:48;8.60;;;6.03;;
2105;SDS011;1059;52.548;13.408;2023-02-28T04:19:17;10.53;;;7.20;;
2105;SDS011;1059;52.548;13.408;2023-02-28T04:21:44;11.07;;;6.73;;
2105;SDS011;1059;52.548;13.408;2023-02-28T04:24:14;11.53;;;5.97;;
2105;SDS011;1059;52.548;13.408;2023-02-28T04:26:42;10.70;;;6.70;;
2105;SDS011;1059;52.548;13.408;2023-02-28T04:29:11;9.33;;;6.40;;
2105;SDS011;1059;52.548;13.408;2023-02-28T04:31:40;13.20;;;6.73;;
2105;SDS011;1059;52.548;13.408;2023-02-28T04:34:07;10.43;;;7.70;;
2105;SDS011;1059;52.548;13.408;2023-02-28T04:36:34;8.97;;;6.60;;
2105;SDS011;1059;52.548;13.408;2023-02-28T04:39:01;11.17;;;7.07;;
2105;SDS011;1059;52.548;13.408;2023-02-28T04:41:30;9.07;;;6.40;;
2105;SDS011;1059;52.548;13.408;2023-02-28T04:43:57;11.43;;;7.20;;
2105;SDS011;1059;52.548;13.408;2023-02-28T04:46:24;9.93;;;6.20;;
2105;SDS011;1059;52.548;13.408;2023-02-28T04:48:51;13.27;;;7.20;;
2105;SDS011;1059;52.548;13.408;2023-02-28T04:51:18;10.17;;;6.30;;
2105;SDS011;1059;52.548;13.408;2023-02-28T04:53:45;11.07;;;7.10;;
2105;SDS011;1059;52.548;13.408;2023-02-28T04:56:13;9.70;;;7.37;;
2105;SDS011;1059;52.548;13.408;2023-02-28T04:58:43;13.50;;;7.43;;
2105;SDS011;1059;52.548;13.408;2023-02-28T05:01:18;10.87;;;7.63;;
2105;SDS011;1059;52.548;13.408;2023-02-28T05:03:47;11.13;;;7.20;;
2105;SDS011;1059;52.548;13.408;2023-02-28T05:06:15;9.47;;;6.00;;
2105;SDS011;1059;52.548;13.408;2023-02-28T05:08:42;9.60;;;7.27;;
2105;SDS011;1059;52.548;13.408;2023-02-28T05:11:12;8.77;;;7.10;;
2105;SDS011;1059;52.548;13.408;2023-02-28T05:13:42;12.30;;;6.40;;
2105;SDS011;1059;52.548;13.408;2023-02-28T05:16:09;10.00;;;6.40;;
2105;SDS011;1059;52.548;13.408;2023-02-28T05:18:36;9.50;;;6.80;;
2105;SDS011;1059;52.548;13.408;2023-02-28T05:21:03;10.07;;;7.30;;
2105;SDS011;1059;52.548;13.408;2023-02-28T05:23:30;9.10;;;6.67;;
2105;SDS011;1059;52.548;13.408;2023-02-28T05:25:57;8.10;;;7.20;;
2105;SDS011;1059;52.548;13.408;2023-02-28T05:28:24;15.70;;;10.27;;
2105;SDS011;1059;52.548;13.408;2023-02-28T05:30:52;10.97;;;8.47;;
2105;SDS011;1059;52.548;13.408;2023-02-28T05:33:19;11.23;;;7.70;;
2105;SDS011;1059;52.548;13.408;2023-02-28T05:35:46;28.50;;;20.23;;
2105;SDS011;1059;52.548;13.408;2023-02-28T05:38:12;27.57;;;18.97;;
2105;SDS011;1059;52.548;13.408;2023-02-28T05:40:39;27.30;;;16.70;;
2105;SDS011;1059;52.548;13.408;2023-02-28T05:43:08;18.53;;;13.37;;
2105;SDS011;1059;52.548;13.408;2023-02-28T05:45:36;12.63;;;8.90;;
2105;SDS011;1059;52.548;13.408;2023-02-28T05:48:05;13.90;;;10.03;;
2105;SDS011;1059;52.548;13.408;2023-02-28T05:50:32;11.47;;;8.00;;
2105;SDS011;1059;52.548;13.408;2023-02-28T05:52:59;9.20;;;7.90;;
2105;SDS011;1059;52.548;13.408;2023-02-28T05:55:25;10.70;;;7.30;;
2105;SDS011;1059;52.548;13.408;2023-02-28T05:57:52;11.60;;;6.83;;
2105;SDS011;1059;52.548;13.408;2023-02-28T06:00:19;59.17;;;32.20;;
2105;SDS011;1059;52.548;13.408;2023-02-28T06:02:46;18.70;;;12.20;;
2105;SDS011;1059;52.548;13.408;2023-02-28T06:05:15;15.90;;;9.30;;
2105;SDS011;1059;52.548;13.408;2023-02-28T06:07:43;13.90;;;8.47;;
2105;SDS011;1059;52.548;13.408;2023-02-28T06:10:10;15.00;;;9.20;;
2105;SDS011;1059;52.548;13.408;2023-02-28T06:12:38;9.60;;;7.77;;
2105;SDS011;1059;52.548;13.408;2023-02-28T06:15:07;13.30;;;8.13;;
2105;SDS011;1059;52.548;13.408;2023-02-28T06:17:36;11.40;;;7.73;;
2105;SDS011;1059;52.548;13.408;2023-02-28T06:20:04;17.80;;;9.33;;
2105;SDS011;1059;52.548;13.408;2023-02-28T06:22:33;13.37;;;9.07;;
2105;SDS011;1059;52.548;13.408;2023-02-28T06:25:00;13.17;;;9.37;;
2105;SDS011;1059;52.548;13.408;2023-02-28T06:27:27;17.53;;;9.17;;
2105;SDS011;1059;52.548;13.408;2023-02-28T06:29:54;11.77;;;8.47;;
2105;SDS011;1059;52.548;13.408;2023-02-28T06:32:21;16.40;;;9.23;;
2105;SDS011;1059;52.548;13.408;2023-02-28T06:34:48;16.70;;;9.53;;
2105;SDS011;1059;52.548;13.408;2023-02-28T06:37:15;14.37;;;9.67;;
2105;SDS011;1059;52.548;13.408;2023-02-28T06:39:44;14.63;;;9.67;;
2105;SDS011;1059;52.548;13.408;2023-02-28T06:42:11;13.40;;;9.93;;
2105;SDS011;1059;52.548;13.408;2023-02-28T06:44:38;16.47;;;12.27;;
2105;SDS011;1059;52.548;13.408;2023-02-28T06:47:05;18.27;;;12.53;;
2105;SDS011;1059;52.548;13.408;2023-02-28T06:49:33;18.20;;;10.73;;
2105;SDS011;1059;52.548;13.408;2023-02-28T06:52:01;13.00;;;10.00;;
2105;SDS011;1059;52.548;13.408;2023-02-28T06:54:29;15.03;;;10.93;;
2105;SDS011;1059;52.548;13.408;2023-02-28T06:56:58;14.77;;;11.03;;
2105;SDS011;1059;52.548;13.408;2023-02-28T06:59:25;19.37;;;11.77;;
2105;SDS011;1059;52.548;13.408;2023-02-28T07:01:52;15.87;;;12.10;;
2105;SDS011;1059;52.548;13.408;2023-02-28T07:04:20;17.43;;;11.70;;
2105;SDS011;1059;52.548;13.408;2023-02-28T07:06:46;16.30;;;10.80;;
2105;SDS011;1059;52.548;13.408;2023-02-28T07:09:13;15.47;;;10.83;;
2105;SDS011;1059;52.548;13.408;2023-02-28T07:11:40;17.17;;;11.20;;
2105;SDS011;1059;52.548;13.408;2023-02-28T07:14:09;17.27;;;11.60;;
2105;SDS011;1059;52.548;13.408;2023-02-28T07:16:36;16.00;;;11.73;;
2105;SDS011;1059;52.548;13.408;2023-02-28T07:19:02;21.07;;;12.93;;
2105;SDS011;1059;52.548;13.408;2023-02-28T07:21:29;16.53;;;11.23;;
2105;SDS011;1059;52.548;13.408;2023-02-28T07:23:56;21.43;;;11.63;;
2105;SDS011;1059;52.548;13.408;2023-02-28T07:26:23;21.97;;;15.30;;
2105;SDS011;1059;52.548;13.408;2023-02-28T07:28:50;47.10;;;24.87;;
2105;SDS011;1059;52.548;13.408;2023-02-28T07:31:18;21.70;;;12.07;;
2105;SDS011;1059;52.548;13.408;2023-02-28T07:33:45;15.00;;;10.47;;
2105;SDS011;1059;52.548;13.408;2023-02-28T07:36:13;17.17;;;10.67;;
2105;SDS011;1059;52.548;13.408;2023-02-28T07:38:45;11.60;;;9.70;;
2105;SDS011;1059;52.548;13.408;2023-02-28T07:41:13;16.77;;;10.00;;
2105;SDS011;1059;52.548;13.408;2023-02-28T07:43:40;16.07;;;9.57;;
2105;SDS011;1059;52.548;13.408;2023-02-28T07:46:08;17.57;;;12.07;;
2105;SDS011;1059;52.548;13.408;2023-02-28T07:48:38;13.90;;;10.90;;
2105;SDS011;1059;52.548;13.408;2023-02-28T07:51:05;16.87;;;10.23;;
2105;SDS011;1059;52.548;13.408;2023-02-28T07:53:32;17.37;;;11.30;;
2105;SDS011;1059;52.548;13.408;2023-02-28T07:56:00;15.23;;;9.67;;
2105;SDS011;1059;52.548;13.408;2023-02-28T07:58:28;14.30;;;10.07;;
2105;SDS011;1059;52.548;13.408;2023-02-28T08:00:55;40.30;;;25.07;;
2105;SDS011;1059;52.548;13.408;2023-02-28T08:03:23;53.30;;;38.03;;
2105;SDS011;1059;52.548;13.408;2023-02-28T08:05:51;26.93;;;18.10;;
2105;SDS011;1059;52.548;13.408;2023-02-28T08:08:18;15.53;;;11.40;;
2105;SDS011;1059;52.548;13.408;2023-02-28T08:10:45;12.10;;;8.73;;
2105;SDS011;1059;52.548;13.408;2023-02-28T08:13:12;11.80;;;7.30;;
2105;SDS011;1059;52.548;13.408;2023-02-28T08:15:40;11.83;;;5.80;;
2105;SDS011;1059;52.548;13.408;2023-02-28T08:18:07;10.17;;;6.33;;
2105;SDS011;1059;52.548;13.408;2023-02-28T08:20:34;8.13;;;5.87;;
2105;SDS011;1059;52.548;13.408;2023-02-28T08:23:02;8.83;;;5.90;;
2105;SDS011;1059;52.548;13.408;2023-02-28T08:25:29;11.40;;;6.03;;
2105;SDS011;1059;52.548;13.408;2023-02-28T08:27:56;8.03;;;6.10;;
2105;SDS011;1059;52.548;13.408;2023-02-28T08:30:23;8.50;;;5.80;;
2105;SDS011;1059;52.548;13.408;2023-02-28T08:32:50;9.27;;;6.60;;
2105;SDS011;1059;52.548;13.408;2023-02-28T08:35:17;7.50;;;5.80;;
2105;SDS011;1059;52.548;13.408;2023-02-28T08:37:43;9.70;;;6.50;;
2105;SDS011;1059;52.548;13.408;2023-02-28T08:40:12;5.60;;;4.30;;
2105;SDS011;1059;52.548;13.408;2023-02-28T08:42:43;6.47;;;4.47;;
2105;SDS011;1059;52.548;13.408;2023-02-28T08:45:10;7.83;;;4.50;;
2105;SDS011;1059;52.548;13.408;2023-02-28T08:47:37;4.47;;;3.70;;
2105;SDS011;1059;52.548;13.408;2023-02-28T08:50:04;4.97;;;3.40;;
2105;SDS011;1059;52.548;13.408;2023-02-28T08:52:32;3.80;;;3.03;;
2105;SDS011;1059;52.548;13.408;2023-02-28T08:54:59;4.27;;;3.00;;
2105;SDS011;1059;52.548;13.408;2023-02-28T08:57:27;3.93;;;3.07;;
2105;SDS011;1059;52.548;13.408;2023-02-28T08:59:54;5.10;;;2.87;;
2105;SDS011;1059;52.548;13.408;2023-02-28T09:02:22;5.63;;;2.97;;
2105;SDS011;1059;52.548;13.408;2023-02-28T09:04:49;3.17;;;2.87;;
2105;SDS011;1059;52.548;13.408;2023-02-28T09:07:15;8.47;;;2.67;;
2105;SDS011;1059;52.548;13.408;2023-02-28T09:09:42;6.80;;;3.23;;
2105;SDS011;1059;52.548;13.408;2023-02-28T09:12:19;4.03;;;2.20;;
2105;SDS011;1059;52.548;13.408;2023-02-28T09:14:48;4.90;;;3.20;;
2105;SDS011;1059;52.548;13.408;2023-02-28T09:17:14;7.23;;;3.40;;
2105;SDS011;1059;52.548;13.408;2023-02-28T09:19:41;5.10;;;2.90;;
2105;SDS011;1059;52.548;13.408;2023-02-28T09:22:08;3.90;;;3.23;;
2105;SDS011;1059;52.548;13.408;2023-02-28T09:24:36;41.83;;;26.10;;
2105;SDS011;1059;52.548;13.408;2023-02-28T09:27:03;7.07;;;4.30;;
2105;SDS011;1059;52.548;13.408;2023-02-28T09:29:31;5.03;;;3.50;;
2105;SDS011;1059;52.548;13.408;2023-02-28T09:32:00;3.63;;;2.80;;
2105;SDS011;1059;52.548;13.408;2023-02-28T09:34:27;4.63;;;2.50;;
2105;SDS011;1059;52.548;13.408;2023-02-28T09:36:56;5.90;;;2.80;;
2105;SDS011;1059;52.548;13.408;2023-02-28T09:39:23;3.30;;;2.40;;
2105;SDS011;1059;52.548;13.408;2023-02-28T09:41:52;3.07;;;2.30;;
2105;SDS011;1059;52.548;13.408;2023-02-28T09:44:20;3.60;;;2.60;;
2105;SDS011;1059;52.548;13.408;2023-02-28T09:46:55;3.67;;;3.07;;
2105;SDS011;1059;52.548;13.408;2023-02-28T09:49:28;21.20;;;12.80;;
2105;SDS011;1059;52.548;13.408;2023-02-28T09:52:01;4.27;;;2.83;;
2105;SDS011;1059;52.548;13.408;2023-02-28T09:54:31;3.07;;;2.10;;
2105;SDS011;1059;52.548;13.408;2023-02-28T09:56:59;3.47;;;2.03;;
2105;SDS011;1059;52.548;13.408;2023-02-28T09:59:35;3.33;;;2.17;;
2105;SDS011;1059;52.548;13.408;2023-02-28T10:02:15;7.20;;;2.20;;
2105;SDS011;1059;52.548;13.408;2023-02-28T10:05:00;2.80;;;2.43;;
2105;SDS011;1059;52.548;13.408;2023-02-28T10:07:41;2.90;;;2.23;;
2105;SDS011;1059;52.548;13.408;2023-02-28T10:10:22;5.43;;;4.47;;
2105;SDS011;1059;52.548;13.408;2023-02-28T10:12:52;3.37;;;3.07;;
2105;SDS011;1059;52.548;13.408;2023-02-28T10:15:21;5.37;;;2.20;;
2105;SDS011;1059;52.548;13.408;2023-02-28T10:17:51;4.70;;;2.43;;
2105;SDS011;1059;52.548;13.408;2023-02-28T10:20:25;3.70;;;2.17;;
2105;SDS011;1059;52.548;13.408;2023-02-28T10:22:57;2.63;;;2.07;;
2105;SDS011;1059;52.548;13.408;2023-02-28T10:25:32;4.60;;;3.37;;
2105;SDS011;1059;52.548;13.408;2023-02-28T10:28:01;2.70;;;2.40;;
2105;SDS011;1059;52.548;13.408;2023-02-28T10:30:34;5.10;;;2.30;;
2105;SDS011;1059;52.548;13.408;2023-02-28T10:33:03;3.10;;;2.10;;
2105;SDS011;1059;52.548;13.408;2023-02-28T10:35:31;2.93;;;2.20;;
2105;SDS011;1059;52.548;13.408;2023-02-28T10:37:59;11.77;;;7.10;;
2105;SDS011;1059;52.548;13.408;2023-02-28T10:40:36;5.03;;;3.40;;
2105;SDS011;1059;52.548;13.408;2023-02-28T10:43:03;3.97;;;2.60;;
2105;SDS011;1059;52.548;13.408;2023-02-28T10:45:31;3.97;;;2.57;;
2105;SDS011;1059;52.548;13.408;2023-02-28T10:48:02;3.57;;;2.47;;
2105;SDS011;1059;52.548;13.408;2023-02-28T10:50:39;4.13;;;2.57;;
2105;SDS011;1059;52.548;13.408;2023-02-28T10:53:20;3.00;;;2.10;;
2105;SDS011;1059;52.548;13.408;2023-02-28T10:55:58;5.20;;;1.90;;
2105;SDS011;1059;52.548;13.408;2023-02-28T10:58:28;2.23;;;1.80;;
2105;SDS011;1059;52.548;13.408;2023-02-28T11:00:55;2.80;;;2.33;;
2105;SDS011;1059;52.548;13.408;2023-02-28T11:03:24;2.37;;;1.87;;
2105;SDS011;1059;52.548;13.408;2023-02-28T11:05:57;2.50;;;2.00;;
2105;SDS011;1059;52.548;13.408;2023-02-28T11:08:24;3.80;;;2.27;;
2105;SDS011;1059;52.548;13.408;2023-02-28T11:10:54;1.73;;;1.63;;
2105;SDS011;1059;52.548;13.408;2023-02-28T11:16:12;3.00;;;2.13;;
2105;SDS011;1059;52.548;13.408;2023-02-28T11:18:41;5.00;;;2.00;;
2105;SDS011;1059;52.548;13.408;2023-02-28T11:21:15;3.83;;;2.60;;
2105;SDS011;1059;52.548;13.408;2023-02-28T11:23:45;2.90;;;2.60;;
2105;SDS011;1059;52.548;13.408;2023-02-28T11:26:15;2.93;;;2.63;;
2105;SDS011;1059;52.548;13.408;2023-02-28T11:29:05;7.63;;;2.60;;
2105;SDS011;1059;52.548;13.408;2023-02-28T11:31:37;3.73;;;2.30;;
2105;SDS011;1059;52.548;13.408;2023-02-28T11:34:20;2.90;;;2.50;;
2105;SDS011;1059;52.548;13.408;2023-02-28T11:36:52;3.20;;;2.30;;
2105;SDS011;1059;52.548;13.408;2023-02-28T11:39:21;3.70;;;2.93;;
2105;SDS011;1059;52.548;13.408;2023-02-28T11:41:55;4.50;;;2.80;;
2105;SDS011;1059;52.548;13.408;2023-02-28T11:44:39;3.40;;;2.83;;
2105;SDS011;1059;52.548;13.408;2023-02-28T11:47:21;7.30;;;3.57;;
2105;SDS011;1059;52.548;13.408;2023-02-28T11:49:59;5.43;;;3.90;;
2105;SDS011;1059;52.548;13.408;2023-02-28T11:52:40;6.83;;;4.07;;
2105;SDS011;1059;52.548;13.408;2023-02-28T11:55:16;4.30;;;2.97;;
2105;SDS011;1059;52.548;13.408;2023-02-28T11:57:52;4.70;;;2.93;;
2105;SDS011;1059;52.548;13.408;2023-02-28T12:00:39;3.10;;;2.80;;
2105;SDS011;1059;52.548;13.408;2023-02-28T12:03:15;3.50;;;2.70;;
2105;SDS011;1059;52.548;13.408;2023-02-28T12:05:50;3.53;;;2.80;;
2105;SDS011;1059;52.548;13.408;2023-02-28T12:08:31;3.43;;;2.53;;
2105;SDS011;1059;52.548;13.408;2023-02-28T12:11:10;5.23;;;3.07;;
2105;SDS011;1059;52.548;13.408;2023-02-28T12:13:46;6.13;;;3.30;;
2105;SDS011;1059;52.548;13.408;2023-02-28T12:16:22;3.00;;;2.00;;
2105;SDS011;1059;52.548;13.408;2023-02-28T12:19:13;7.13;;;3.20;;
2105;SDS011;1059;52.548;13.408;2023-02-28T12:21:48;5.50;;;4.20;;
2105;SDS011;1059;52.548;13.408;2023-02-28T12:24:49;3.60;;;2.43;;
2105;SDS011;1059;52.548;13.408;2023-02-28T12:27:46;3.50;;;2.57;;
2105;SDS011;1059;52.548;13.408;2023-02-28T12:30:16;3.97;;;2.47;;
2105;SDS011;1059;52.548;13.408;2023-02-28T12:32:48;3.90;;;2.63;;
2105;SDS011;1059;52.548;13.408;2023-02-28T12:35:20;2.73;;;2.50;;
2105;SDS011;1059;52.548;13.408;2023-02-28T12:37:51;5.03;;;3.17;;
2105;SDS011;1059;52.548;13.408;2023-02-28T12:40:25;4.20;;;3.30;;
2105;SDS011;1059;52.548;13.408;2023-02-28T12:42:55;2.93;;;2.60;;
2105;SDS011;1059;52.548;13.408;2023-02-28T12:45:26;5.20;;;3.20;;
2105;SDS011;1059;52.548;13.408;2023-02-28T12:47:59;4.87;;;3.10;;
2105;SDS011;1059;52.548;13.408;2023-02-28T12:50:30;4.73;;;3.33;;
2105;SDS011;1059;52.548;13.408;2023-02-28T12:53:00;3.50;;;3.20;;
2105;SDS011;1059;52.548;13.408;2023-02-28T12:55:33;5.27;;;4.00;;
2105;SDS011;1059;52.548;13.408;2023-02-28T12:58:08;3.73;;;2.60;;
2105;SDS011;1059;52.548;13.408;2023-02-28T13:00:44;4.37;;;3.20;;
2105;SDS011;1059;52.548;13.408;2023-02-28T13:03:36;3.80;;;2.50;;
2105;SDS011;1059;52.548;13.408;2023-02-28T13:09:23;4.70;;;2.90;;
2105;SDS011;1059;52.548;13.408;2023-02-28T13:11:52;3.00;;;2.67;;
2105;SDS011;1059;52.548;13.408;2023-02-28T13:14:24;2.50;;;2.23;;
2105;SDS011;1059;52.548;13.408;2023-02-28T13:16:59;2.93;;;2.63;;
2105;SDS011;1059;52.548;13.408;2023-02-28T13:19:30;4.67;;;3.10;;
2105;SDS011;1059;52.548;13.408;2023-02-28T13:21:59;5.03;;;2.97;;
2105;SDS011;1059;52.548;13.408;2023-02-28T13:24:41;3.77;;;3.00;;
2105;SDS011;1059;52.548;13.408;2023-02-28T13:33:19;2.80;;;2.53;;
2105;SDS011;1059;52.548;13.408;2023-02-28T13:35:52;2.60;;;2.30;;
2105;SDS011;1059;52.548;13.408;2023-02-28T13:38:38;3.50;;;3.00;;
2105;SDS011;1059;52.548;13.408;2023-02-28T13:44:12;5.70;;;3.17;;
2105;SDS011;1059;52.548;13.408;2023-02-28T13:49:47;5.80;;;4.03;;
2105;SDS011;1059;52.548;13.408;2023-02-28T13:52:16;3.20;;;2.90;;
2105;SDS011;1059;52.548;13.408;2023-02-28T13:54:52;2.97;;;2.57;;
2105;SDS011;1059;52.548;13.408;2023-02-28T13:57:30;3.50;;;2.40;;
2105;SDS011;1059;52.548;13.408;2023-02-28T14:00:15;3.70;;;3.03;;
2105;SDS011;1059;52.548;13.408;2023-02-28T14:02:52;4.23;;;2.50;;
2105;SDS011;1059;52.548;13.408;2023-02-28T14:05:37;3.20;;;2.70;;
2105;SDS011;1059;52.548;13.408;2023-02-28T14:08:05;6.20;;;5.30;;
2105;SDS011;1059;52.548;13.408;2023-02-28T14:10:39;5.00;;;3.20;;
2105;SDS011;1059;52.548;13.408;2023-02-28T14:13:14;3.97;;;3.57;;
2105;SDS011;1059;52.548;13.408;2023-02-28T14:16:11;3.77;;;3.20;;
2105;SDS011;1059;52.548;13.408;2023-02-28T14:18:41;3.33;;;2.93;;
2105;SDS011;1059;52.548;13.408;2023-02-28T14:21:16;3.60;;;2.87;;
2105;SDS011;1059;52.548;13.408;2023-02-28T14:24:03;4.40;;;2.70;;
2105;SDS011;1059;52.548;13.408;2023-02-28T14:26:58;3.70;;;3.03;;
2105;SDS011;1059;52.548;13.408;2023-02-28T14:30:01;3.03;;;2.30;;
2105;SDS011;1059;52.548;13.408;2023-02-28T14:32:49;4.97;;;3.10;;
2105;SDS011;1059;52.548;13.408;2023-02-28T14:38:29;3.30;;;3.00;;
2105;SDS011;1059;52.548;13.408;2023-02-28T14:41:00;4.10;;;3.00;;
2105;SDS011;1059;52.548;13.408;2023-02-28T14:43:32;3.40;;;2.67;;
2105;SDS011;1059;52.548;13.408;2023-02-28T14:45:59;3.10;;;2.80;;
2105;SDS011;1059;52.548;13.408;2023-02-28T14:48:29;3.20;;;2.83;;
2105;SDS011;1059;52.548;13.408;2023-02-28T14:50:56;4.57;;;3.53;;
2105;SDS011;1059;52.548;13.408;2023-02-28T14:53:25;3.30;;;2.90;;
2105;SDS011;1059;52.548;13.408;2023-02-28T14:55:54;4.03;;;2.90;;
2105;SDS011;1059;52.548;13.408;2023-02-28T14:58:22;3.07;;;2.60;;
2105;SDS011;1059;52.548;13.408;2023-02-28T15:00:51;2.87;;;2.57;;
2105;SDS011;1059;52.548;13.408;2023-02-28T15:03:20;3.37;;;2.60;;
2105;SDS011;1059;52.548;13.408;2023-02-28T15:05:53;3.77;;;2.63;;
2105;SDS011;1059;52.548;13.408;2023-02-28T15:08:22;3.80;;;3.40;;
2105;SDS011;1059;52.548;13.408;2023-02-28T15:10:53;6.57;;;3.93;;
2105;SDS011;1059;52.548;13.408;2023-02-28T15:13:22;9.70;;;6.77;;
2105;SDS011;1059;52.548;13.408;2023-02-28T15:15:53;4.83;;;4.03;;
2105;SDS011;1059;52.548;13.408;2023-02-28T15:18:24;10.53;;;6.57;;
2105;SDS011;1059;52.548;13.408;2023-02-28T15:20:58;4.53;;;2.97;;
2105;SDS011;1059;52.548;13.408;2023-02-28T15:23:30;4.13;;;3.00;;
2105;SDS011;1059;52.548;13.408;2023-02-28T15:25:57;3.70;;;2.70;;
2105;SDS011;1059;52.548;13.408;2023-02-28T15:28:25;4.03;;;2.80;;
2105;SDS011;1059;52.548;13.408;2023-02-28T15:30:54;3.07;;;2.60;;
2105;SDS011;1059;52.548;13.408;2023-02-28T15:33:24;3.03;;;2.73;;
2105;SDS011;1059;52.548;13.408;2023-02-28T15:36:04;5.63;;;3.23;;
2105;SDS011;1059;52.548;13.408;2023-02-28T15:38:33;4.60;;;3.27;;
2105;SDS011;1059;52.548;13.408;2023-02-28T15:41:01;5.33;;;4.07;;
2105;SDS011;1059;52.548;13.408;2023-02-28T15:43:33;4.90;;;3.50;;
2105;SDS011;1059;52.548;13.408;2023-02-28T15:46:03;3.80;;;3.10;;
2105;SDS011;1059;52.548;13.408;2023-02-28T15:48:33;5.47;;;3.50;;